Time;durP1;ratioP1;P1;durP2;ratioP2;P2;SDS_P1;SDS_P2;PMS_P1;PMS_P2;Temp;Humidity;BMP_temperature;BMP_pressure;BME280_temperature;BME280_humidity;BME280_pressure;Samples;Min_cycle;Max_cycle;Signal;HPM_P1;HPM_P2
2024/01/18 00:00:20;;;;;;;4.38;3.35;;;;;;;;;;5073900;28;20232;-80
2024/01/18 00:02:48;;;;;;;6.28;4.40;;;;;;;;;;5074075;28;20224;-81
2024/01/18 00:05:15;;;;;;;4.38;3.50;;;;;;;;;;5074097;28;20217;-80
2024/01/18 00:07:43;;;;;;;5.80;3.38;;;;;;;;;;5074002;28;20205;-79
2024/01/18 00:10:11;;;;;;;7.32;4.05;;;;;;;;;;5076144;28;20201;-80
2024/01/18 00:12:39;;;;;;;6.47;5.47;;;;;;;;;;5078361;28;20219;-79
2024/01/18 00:15:08;;;;;;;4.18;3.78;;;;;;;;;;5078221;28;20229;-80
2024/01/18 00:17:37;;;;;;;5.22;4.18;;;;;;;;;;5077423;28;20207;-81
2024/01/18 00:20:06;;;;;;;4.88;4.47;;;;;;;;;;5077256;28;20639;-79
2024/01/18 00:22:33;;;;;;;6.70;5.03;;;;;;;;;;5077306;28;20208;-79
2024/01/18 00:25:01;;;;;;;6.78;4.32;;;;;;;;;;5077728;28;20308;-79
2024/01/18 00:27:28;;;;;;;8.05;5.55;;;;;;;;;;5077174;28;20201;-81
2024/01/18 00:29:56;;;;;;;6.68;5.28;;;;;;;;;;5077957;28;20209;-80
2024/01/18 00:32:23;;;;;;;8.10;5.20;;;;;;;;;;5077604;28;20197;-80
2024/01/18 00:34:53;;;;;;;6.38;5.75;;;;;;;;;;5077291;28;20225;-79
2024/01/18 00:37:21;;;;;;;8.23;6.50;;;;;;;;;;5078050;28;20271;-80
2024/01/18 00:39:48;;;;;;;7.07;5.80;;;;;;;;;;5077403;28;20197;-80
2024/01/18 00:42:16;;;;;;;8.57;6.43;;;;;;;;;;5077903;28;20197;-80
2024/01/18 00:44:43;;;;;;;9.38;7.25;;;;;;;;;;5077820;28;20221;-79
2024/01/18 00:47:11;;;;;;;10.30;6.82;;;;;;;;;;5077366;28;20322;-80
2024/01/18 00:49:38;;;;;;;8.68;7.47;;;;;;;;;;5077416;28;20223;-80
2024/01/18 00:52:07;;;;;;;9.88;7.15;;;;;;;;;;5077490;28;20686;-79
2024/01/18 00:54:34;;;;;;;10.10;7.65;;;;;;;;;;5076827;28;20224;-80
2024/01/18 00:57:02;;;;;;;8.68;7.32;;;;;;;;;;5076917;28;20695;-78
2024/01/18 00:59:29;;;;;;;8.98;7.85;;;;;;;;;;5077064;28;20203;-79
2024/01/18 01:01:57;;;;;;;10.82;8.48;;;;;;;;;;5076965;28;20196;-80
2024/01/18 01:04:24;;;;;;;10.77;8.70;;;;;;;;;;5076801;28;20221;-80
2024/01/18 01:06:52;;;;;;;13.52;9.73;;;;;;;;;;5076499;28;20200;-80
2024/01/18 01:09:21;;;;;;;13.80;10.13;;;;;;;;;;5076938;28;20209;-78
2024/01/18 01:11:48;;;;;;;14.45;10.88;;;;;;;;;;5077298;28;20201;-80
2024/01/18 01:14:15;;;;;;;12.70;10.20;;;;;;;;;;5076834;28;20737;-78
2024/01/18 01:16:43;;;;;;;12.50;9.88;;;;;;;;;;5076316;28;20739;-80
2024/01/18 01:19:10;;;;;;;13.95;10.05;;;;;;;;;;5076536;28;20205;-80
2024/01/18 01:21:38;;;;;;;11.15;9.88;;;;;;;;;;5075527;28;20235;-80
2024/01/18 01:24:05;;;;;;;13.13;10.15;;;;;;;;;;5076141;28;20285;-80
2024/01/18 01:26:35;;;;;;;12.02;10.00;;;;;;;;;;5076843;28;20284;-80
2024/01/18 01:29:03;;;;;;;12.05;9.73;;;;;;;;;;5076722;28;20200;-80
2024/01/18 01:31:30;;;;;;;16.27;11.40;;;;;;;;;;5076782;28;20205;-80
2024/01/18 01:33:58;;;;;;;16.65;12.68;;;;;;;;;;5076438;28;20291;-79
2024/01/18 01:36:25;;;;;;;13.57;10.43;;;;;;;;;;5075891;28;20220;-81
2024/01/18 01:38:53;;;;;;;18.25;10.85;;;;;;;;;;5076038;28;20206;-81
2024/01/18 01:41:20;;;;;;;14.52;10.75;;;;;;;;;;5076248;28;20207;-80
2024/01/18 01:43:59;;;;;;;14.75;11.68;;;;;;;;;;5075993;28;20608;-80
2024/01/18 01:46:27;;;;;;;16.52;11.07;;;;;;;;;;5076387;28;20228;-81
2024/01/18 01:49:00;;;;;;;14.52;10.35;;;;;;;;;;5075944;28;20200;-80
2024/01/18 01:51:29;;;;;;;14.55;11.48;;;;;;;;;;5076411;28;20663;-80
2024/01/18 01:53:57;;;;;;;17.30;10.93;;;;;;;;;;5076337;28;20197;-81
2024/01/18 01:56:25;;;;;;;17.17;12.48;;;;;;;;;;5076026;28;20580;-80
2024/01/18 01:58:53;;;;;;;19.23;11.70;;;;;;;;;;5075633;28;20205;-80
2024/01/18 02:01:22;;;;;;;17.80;12.38;;;;;;;;;;5075895;28;20204;-79
2024/01/18 02:03:49;;;;;;;16.75;12.63;;;;;;;;;;5076371;28;20682;-79
2024/01/18 02:06:18;;;;;;;16.15;11.88;;;;;;;;;;5076020;28;20221;-80
2024/01/18 02:08:49;;;;;;;18.08;13.30;;;;;;;;;;5075834;28;20664;-79
2024/01/18 02:11:16;;;;;;;17.77;13.57;;;;;;;;;;5096342;28;20196;-79
2024/01/18 02:13:44;;;;;;;15.75;13.02;;;;;;;;;;5099918;28;20264;-80
2024/01/18 02:16:11;;;;;;;17.55;12.02;;;;;;;;;;5093537;28;20224;-78
2024/01/18 02:18:40;;;;;;;18.60;11.85;;;;;;;;;;5098835;28;20239;-79
2024/01/18 02:21:08;;;;;;;16.73;13.27;;;;;;;;;;5098579;28;20199;-79
2024/01/18 02:23:37;;;;;;;16.95;13.18;;;;;;;;;;5099933;28;20239;-79
2024/01/18 02:26:06;;;;;;;19.30;14.68;;;;;;;;;;5099321;28;20297;-79
2024/01/18 02:28:33;;;;;;;19.25;13.77;;;;;;;;;;5090222;28;20663;-79
2024/01/18 02:31:01;;;;;;;15.95;12.30;;;;;;;;;;5096632;28;20208;-80
2024/01/18 02:33:28;;;;;;;18.60;13.73;;;;;;;;;;5097382;28;20224;-79
2024/01/18 02:35:56;;;;;;;17.70;14.07;;;;;;;;;;5098878;28;20303;-80
2024/01/18 02:38:24;;;;;;;22.10;15.43;;;;;;;;;;5099870;28;20651;-79
2024/01/18 02:40:51;;;;;;;20.65;13.80;;;;;;;;;;5099196;28;20208;-79
2024/01/18 02:43:20;;;;;;;20.80;15.63;;;;;;;;;;5099236;28;20206;-79
2024/01/18 02:45:47;;;;;;;19.98;15.00;;;;;;;;;;5092796;28;20311;-79
2024/01/18 02:48:15;;;;;;;19.77;14.52;;;;;;;;;;5094139;28;20698;-79
2024/01/18 02:50:42;;;;;;;22.27;16.05;;;;;;;;;;5097239;28;20271;-79
2024/01/18 02:53:10;;;;;;;22.45;15.73;;;;;;;;;;5099792;28;20566;-79
2024/01/18 02:55:37;;;;;;;20.88;15.80;;;;;;;;;;5093081;28;20698;-79
2024/01/18 02:58:05;;;;;;;23.17;16.67;;;;;;;;;;5099112;28;20224;-80
2024/01/18 03:00:34;;;;;;;23.23;16.90;;;;;;;;;;5099914;28;20204;-79
2024/01/18 03:03:01;;;;;;;19.27;15.60;;;;;;;;;;5093596;28;20663;-79
2024/01/18 03:05:29;;;;;;;19.10;15.73;;;;;;;;;;5098939;28;20312;-80
2024/01/18 03:07:56;;;;;;;24.58;15.77;;;;;;;;;;5099700;28;20265;-79
2024/01/18 03:10:24;;;;;;;26.60;16.70;;;;;;;;;;5088467;28;20304;-80
2024/01/18 03:12:51;;;;;;;20.27;16.17;;;;;;;;;;5079152;28;20727;-80
2024/01/18 03:15:19;;;;;;;23.05;16.70;;;;;;;;;;5078970;28;20284;-80
2024/01/18 03:17:48;;;;;;;23.10;18.02;;;;;;;;;;5088323;28;20243;-81
2024/01/18 03:20:15;;;;;;;23.67;16.83;;;;;;;;;;5098848;28;20279;-80
2024/01/18 03:22:43;;;;;;;25.60;16.48;;;;;;;;;;5097827;28;20211;-80
2024/01/18 03:25:10;;;;;;;26.23;18.45;;;;;;;;;;5078160;28;20285;-80
2024/01/18 03:27:38;;;;;;;22.25;17.88;;;;;;;;;;5078231;28;20654;-79
2024/01/18 03:30:07;;;;;;;23.55;18.98;;;;;;;;;;5065161;28;20739;-79
2024/01/18 03:32:35;;;;;;;23.85;18.38;;;;;;;;;;5077160;28;20201;-80
2024/01/18 03:35:06;;;;;;;25.85;18.25;;;;;;;;;;5078239;28;20316;-80
2024/01/18 03:37:33;;;;;;;24.48;18.30;;;;;;;;;;5078384;28;20675;-81
2024/01/18 03:40:01;;;;;;;23.77;19.30;;;;;;;;;;5077922;28;20235;-80
2024/01/18 03:42:28;;;;;;;26.42;19.52;;;;;;;;;;5070832;28;20293;-80
2024/01/18 03:44:56;;;;;;;21.52;17.88;;;;;;;;;;5057533;28;20735;-80
2024/01/18 03:47:23;;;;;;;25.33;18.23;;;;;;;;;;5058515;28;20669;-80
2024/01/18 03:49:51;;;;;;;24.67;19.25;;;;;;;;;;5058393;28;20321;-81
2024/01/18 03:52:20;;;;;;;22.83;18.20;;;;;;;;;;5058424;28;20204;-80
2024/01/18 03:54:48;;;;;;;26.85;17.67;;;;;;;;;;5058530;28;20662;-80
2024/01/18 03:57:15;;;;;;;24.70;18.58;;;;;;;;;;5072690;28;20323;-80
2024/01/18 03:59:46;;;;;;;20.75;16.95;;;;;;;;;;5082376;28;20632;-81
2024/01/18 04:02:14;;;;;;;24.75;17.52;;;;;;;;;;5098447;28;20204;-79
2024/01/18 04:04:41;;;;;;;23.25;18.20;;;;;;;;;;5098174;28;20734;-79
2024/01/18 04:07:09;;;;;;;22.55;16.52;;;;;;;;;;5098085;28;20196;-78
2024/01/18 04:09:37;;;;;;;24.52;18.00;;;;;;;;;;5098701;28;20303;-78
2024/01/18 04:12:06;;;;;;;25.23;18.20;;;;;;;;;;5098522;28;20655;-80
2024/01/18 04:14:36;;;;;;;24.35;18.13;;;;;;;;;;5097950;28;20244;-80
2024/01/18 04:17:03;;;;;;;21.27;16.92;;;;;;;;;;5093739;28;20244;-81
2024/01/18 04:19:31;;;;;;;24.10;16.98;;;;;;;;;;5094095;28;20596;-79
2024/01/18 04:21:59;;;;;;;24.40;17.00;;;;;;;;;;5094258;28;20210;-78
2024/01/18 04:24:26;;;;;;;24.40;17.90;;;;;;;;;;5093730;28;20725;-80
2024/01/18 04:26:55;;;;;;;22.75;16.63;;;;;;;;;;5094362;28;20731;-80
2024/01/18 04:29:23;;;;;;;20.15;15.68;;;;;;;;;;5093915;28;20771;-80
2024/01/18 04:31:50;;;;;;;21.92;17.13;;;;;;;;;;5093721;28;20196;-80
2024/01/18 04:34:18;;;;;;;24.73;19.17;;;;;;;;;;5094334;28;20251;-79
2024/01/18 04:36:45;;;;;;;22.52;18.23;;;;;;;;;;5094229;28;20738;-78
2024/01/18 04:39:14;;;;;;;22.55;17.40;;;;;;;;;;5093804;28;20227;-78
2024/01/18 04:41:41;;;;;;;24.88;18.52;;;;;;;;;;5094083;28;20204;-80
2024/01/18 04:44:10;;;;;;;29.50;19.70;;;;;;;;;;5093830;28;20295;-80
2024/01/18 04:46:38;;;;;;;24.08;17.73;;;;;;;;;;5093827;28;20209;-81
2024/01/18 04:49:05;;;;;;;24.88;17.17;;;;;;;;;;5093908;28;20205;-80
2024/01/18 04:51:33;;;;;;;22.52;15.40;;;;;;;;;;5093567;28;20287;-81
2024/01/18 04:54:00;;;;;;;22.20;16.33;;;;;;;;;;5093842;28;20284;-81
2024/01/18 04:56:28;;;;;;;21.13;16.05;;;;;;;;;;5094578;28;20660;-80
2024/01/18 04:58:56;;;;;;;19.83;15.52;;;;;;;;;;5098046;28;20224;-81
2024/01/18 05:01:25;;;;;;;13.80;12.30;;;;;;;;;;5097232;28;20291;-81
2024/01/18 05:03:52;;;;;;;19.98;15.20;;;;;;;;;;5097656;28;20203;-81
2024/01/18 05:06:20;;;;;;;22.23;16.50;;;;;;;;;;5097383;28;20274;-79
2024/01/18 05:08:47;;;;;;;24.67;17.63;;;;;;;;;;5096989;28;20196;-79
2024/01/18 05:11:15;;;;;;;21.48;16.95;;;;;;;;;;5097397;28;20242;-80
2024/01/18 05:13:42;;;;;;;24.40;16.20;;;;;;;;;;5097734;28;20199;-80
2024/01/18 05:16:10;;;;;;;25.48;17.65;;;;;;;;;;5097180;28;20313;-80
2024/01/18 05:18:39;;;;;;;22.30;16.27;;;;;;;;;;5096806;28;20570;-79
2024/01/18 05:21:06;;;;;;;24.58;18.08;;;;;;;;;;5096652;28;20291;-78
2024/01/18 05:23:33;;;;;;;28.13;17.30;;;;;;;;;;5090571;28;20284;-79
2024/01/18 05:26:01;;;;;;;22.00;17.05;;;;;;;;;;5078726;28;20806;-79
2024/01/18 05:28:28;;;;;;;22.10;16.73;;;;;;;;;;5093375;28;20311;-80
2024/01/18 05:30:58;;;;;;;23.42;17.55;;;;;;;;;;5098382;28;20272;-79
2024/01/18 05:33:27;;;;;;;22.67;17.73;;;;;;;;;;5098306;28;20724;-79
2024/01/18 05:35:56;;;;;;;23.40;17.38;;;;;;;;;;5099066;28;20262;-80
2024/01/18 05:38:23;;;;;;;21.00;16.15;;;;;;;;;;5098254;28;20363;-79
2024/01/18 05:40:50;;;;;;;21.27;16.73;;;;;;;;;;5098904;28;20292;-80
2024/01/18 05:43:18;;;;;;;21.23;17.45;;;;;;;;;;5098006;28;20295;-80
2024/01/18 05:45:45;;;;;;;23.95;17.55;;;;;;;;;;5097820;28;20292;-78
2024/01/18 05:48:13;;;;;;;24.80;18.20;;;;;;;;;;5098497;28;20200;-80
2024/01/18 05:50:42;;;;;;;20.77;17.17;;;;;;;;;;5089606;28;20627;-80
2024/01/18 05:53:11;;;;;;;26.88;18.02;;;;;;;;;;5078508;28;20598;-81
2024/01/18 05:55:38;;;;;;;24.05;18.17;;;;;;;;;;5078141;28;20665;-80
2024/01/18 05:58:06;;;;;;;21.17;16.92;;;;;;;;;;5077461;28;20224;-79
2024/01/18 06:00:33;;;;;;;23.40;17.60;;;;;;;;;;5094126;28;20239;-80
2024/01/18 06:03:01;;;;;;;23.27;17.05;;;;;;;;;;5098411;28;20196;-80
2024/01/18 06:05:31;;;;;;;24.83;18.65;;;;;;;;;;5089896;28;20338;-80
2024/01/18 06:07:58;;;;;;;23.95;17.55;;;;;;;;;;5093740;28;20239;-79
2024/01/18 06:10:27;;;;;;;24.75;18.02;;;;;;;;;;5091350;28;20354;-79
2024/01/18 06:12:55;;;;;;;24.45;18.40;;;;;;;;;;5088376;28;20264;-79
2024/01/18 06:15:22;;;;;;;22.25;17.52;;;;;;;;;;5100321;28;20308;-79
2024/01/18 06:17:50;;;;;;;23.90;18.67;;;;;;;;;;5086822;28;20710;-77
2024/01/18 06:20:18;;;;;;;23.83;18.23;;;;;;;;;;5090254;28;20220;-78
2024/01/18 06:22:45;;;;;;;25.80;19.98;;;;;;;;;;5086397;28;20204;-79
2024/01/18 06:25:13;;;;;;;22.52;19.00;;;;;;;;;;5093039;28;20230;-79
2024/01/18 06:27:41;;;;;;;23.77;18.52;;;;;;;;;;5086600;28;20236;-77
2024/01/18 06:30:11;;;;;;;26.23;19.05;;;;;;;;;;5085453;28;20255;-79
2024/01/18 06:32:39;;;;;;;25.30;19.75;;;;;;;;;;5084830;28;20582;-79
2024/01/18 06:35:07;;;;;;;24.80;19.27;;;;;;;;;;5087973;28;20258;-78
2024/01/18 06:37:35;;;;;;;24.98;17.45;;;;;;;;;;5091670;28;20236;-78
2024/01/18 06:40:02;;;;;;;25.98;17.08;;;;;;;;;;5083992;28;20259;-78
2024/01/18 06:42:30;;;;;;;23.35;18.20;;;;;;;;;;5097534;28;20295;-79
2024/01/18 06:44:58;;;;;;;21.52;17.73;;;;;;;;;;5097007;28;20288;-79
2024/01/18 06:47:26;;;;;;;22.77;18.67;;;;;;;;;;5094930;28;20291;-79
2024/01/18 06:49:54;;;;;;;25.45;18.63;;;;;;;;;;5086014;28;20676;-78
2024/01/18 06:52:21;;;;;;;21.00;17.38;;;;;;;;;;5093699;28;20209;-79
2024/01/18 06:54:49;;;;;;;25.77;18.13;;;;;;;;;;5092057;28;20303;-78
2024/01/18 06:57:17;;;;;;;22.02;17.17;;;;;;;;;;5089809;28;20215;-79
2024/01/18 06:59:47;;;;;;;23.50;17.30;;;;;;;;;;5075155;28;20718;-79
2024/01/18 07:02:16;;;;;;;26.15;18.38;;;;;;;;;;5094529;28;20208;-79
2024/01/18 07:04:44;;;;;;;24.40;18.20;;;;;;;;;;5092274;28;20620;-79
2024/01/18 07:07:11;;;;;;;22.63;16.85;;;;;;;;;;5094263;28;20280;-78
2024/01/18 07:09:39;;;;;;;23.55;18.17;;;;;;;;;;5091664;28;20287;-78
2024/01/18 07:12:07;;;;;;;18.77;14.80;;;;;;;;;;5092665;28;20264;-79
2024/01/18 07:14:35;;;;;;;20.20;15.27;;;;;;;;;;5088116;28;20782;-79
2024/01/18 07:17:02;;;;;;;24.27;17.00;;;;;;;;;;5099403;28;20268;-79
2024/01/18 07:19:31;;;;;;;20.27;16.38;;;;;;;;;;5094758;28;20771;-77
2024/01/18 07:21:58;;;;;;;24.13;17.88;;;;;;;;;;5093534;28;20287;-79
2024/01/18 07:24:30;;;;;;;27.67;16.58;;;;;;;;;;5085200;28;20758;-79
2024/01/18 07:26:58;;;;;;;22.65;16.30;;;;;;;;;;5090833;28;20229;-79
2024/01/18 07:29:25;;;;;;;21.85;15.70;;;;;;;;;;5087805;28;20208;-78
2024/01/18 07:31:53;;;;;;;24.15;17.08;;;;;;;;;;5090533;28;20841;-79
2024/01/18 07:34:20;;;;;;;22.15;16.45;;;;;;;;;;5089387;28;20320;-79
2024/01/18 07:36:49;;;;;;;21.27;14.55;;;;;;;;;;5082095;28;20320;-78
2024/01/18 07:39:16;;;;;;;18.70;14.68;;;;;;;;;;5085409;28;20778;-78
2024/01/18 07:41:44;;;;;;;18.35;14.48;;;;;;;;;;5088050;28;20432;-79
2024/01/18 07:44:11;;;;;;;20.63;14.10;;;;;;;;;;5093950;28;20661;-77
2024/01/18 07:46:39;;;;;;;21.05;14.90;;;;;;;;;;5079107;28;20213;-79
2024/01/18 07:49:06;;;;;;;18.40;14.85;;;;;;;;;;5078164;28;20269;-79
2024/01/18 07:51:34;;;;;;;19.63;14.60;;;;;;;;;;5086678;28;20645;-78
2024/01/18 07:54:04;;;;;;;25.02;13.75;;;;;;;;;;5090610;28;20296;-78
2024/01/18 07:56:31;;;;;;;21.38;15.02;;;;;;;;;;5089785;28;20271;-79
2024/01/18 07:58:58;;;;;;;23.95;16.02;;;;;;;;;;5096003;28;20292;-79
2024/01/18 08:01:26;;;;;;;17.70;13.20;;;;;;;;;;5085737;28;20288;-79
2024/01/18 08:03:53;;;;;;;19.95;13.82;;;;;;;;;;5098169;28;20294;-79
2024/01/18 08:06:21;;;;;;;19.83;14.32;;;;;;;;;;5084076;28;20229;-78
2024/01/18 08:08:48;;;;;;;21.85;15.35;;;;;;;;;;5098429;28;20212;-79
2024/01/18 08:11:17;;;;;;;18.10;14.18;;;;;;;;;;5098035;28;20302;-78
2024/01/18 08:13:44;;;;;;;20.95;14.93;;;;;;;;;;5093119;28;20201;-78
2024/01/18 08:16:12;;;;;;;23.92;15.70;;;;;;;;;;5086365;28;20288;-78
2024/01/18 08:18:39;;;;;;;23.98;17.35;;;;;;;;;;5091704;28;20221;-79
2024/01/18 08:21:10;;;;;;;20.35;14.32;;;;;;;;;;5085993;28;20814;-80
2024/01/18 08:23:37;;;;;;;23.55;15.55;;;;;;;;;;5084688;28;20204;-80
2024/01/18 08:26:06;;;;;;;21.98;16.10;;;;;;;;;;5076656;28;20320;-80
2024/01/18 08:28:35;;;;;;;21.48;16.08;;;;;;;;;;5079320;28;20652;-80
2024/01/18 08:31:03;;;;;;;24.27;17.10;;;;;;;;;;5094447;28;20204;-80
2024/01/18 08:33:32;;;;;;;23.52;17.40;;;;;;;;;;5080235;28;20208;-81
2024/01/18 08:35:59;;;;;;;21.35;16.27;;;;;;;;;;5080571;28;20228;-80
2024/01/18 08:38:28;;;;;;;23.80;15.63;;;;;;;;;;5098318;28;20256;-80
2024/01/18 08:40:56;;;;;;;24.15;16.83;;;;;;;;;;5092177;28;20678;-79
2024/01/18 08:43:26;;;;;;;25.95;18.27;;;;;;;;;;5096411;28;20287;-79
2024/01/18 08:45:55;;;;;;;23.98;16.73;;;;;;;;;;5083719;28;20224;-80
2024/01/18 08:48:23;;;;;;;22.15;16.30;;;;;;;;;;5079985;28;20189;-80
2024/01/18 08:50:50;;;;;;;23.85;17.70;;;;;;;;;;5079562;28;20208;-79
2024/01/18 08:53:18;;;;;;;23.25;16.48;;;;;;;;;;5079623;28;20241;-80
2024/01/18 08:55:45;;;;;;;22.90;17.35;;;;;;;;;;5091602;28;20220;-80
2024/01/18 08:58:13;;;;;;;23.00;18.40;;;;;;;;;;5095149;28;20736;-80
2024/01/18 09:00:40;;;;;;;22.88;17.70;;;;;;;;;;5082631;28;20709;-80
2024/01/18 09:03:09;;;;;;;22.67;16.65;;;;;;;;;;5100450;28;20235;-80
2024/01/18 09:05:36;;;;;;;24.52;18.13;;;;;;;;;;5100194;28;20228;-80
2024/01/18 09:08:04;;;;;;;24.75;18.60;;;;;;;;;;5100246;28;20291;-80
2024/01/18 09:10:31;;;;;;;24.77;17.05;;;;;;;;;;5089954;28;20279;-80
2024/01/18 09:12:59;;;;;;;24.90;18.45;;;;;;;;;;5092276;28;20219;-79
2024/01/18 09:15:26;;;;;;;22.52;16.67;;;;;;;;;;5094869;28;20868;-80
2024/01/18 09:17:54;;;;;;;26.23;17.58;;;;;;;;;;5086351;28;20735;-80
2024/01/18 09:20:23;;;;;;;25.27;16.77;;;;;;;;;;5082504;28;20225;-80
2024/01/18 09:22:51;;;;;;;25.23;20.00;;;;;;;;;;5087532;28;20323;-80
2024/01/18 09:25:19;;;;;;;23.17;18.25;;;;;;;;;;5079069;28;20220;-79
2024/01/18 09:27:46;;;;;;;21.95;14.85;;;;;;;;;;5080915;28;20211;-80
2024/01/18 09:30:15;;;;;;;25.77;17.52;;;;;;;;;;5095471;28;20192;-80
2024/01/18 09:32:42;;;;;;;25.58;18.08;;;;;;;;;;5072829;28;20211;-80
2024/01/18 09:35:10;;;;;;;29.38;17.63;;;;;;;;;;5092083;28;20221;-80
2024/01/18 09:37:38;;;;;;;31.63;20.92;;;;;;;;;;5095968;28;20208;-79
2024/01/18 09:40:11;;;;;;;28.10;18.77;;;;;;;;;;5084485;28;20201;-80
2024/01/18 09:42:46;;;;;;;28.35;18.80;;;;;;;;;;5091249;28;20204;-83
2024/01/18 09:45:15;;;;;;;24.88;18.63;;;;;;;;;;5084736;28;20220;-80
2024/01/18 09:47:43;;;;;;;31.35;19.77;;;;;;;;;;5091251;28;20207;-80
2024/01/18 09:50:11;;;;;;;28.38;21.50;;;;;;;;;;5083091;28;20201;-80
2024/01/18 09:52:40;;;;;;;25.63;18.58;;;;;;;;;;5091047;28;20211;-81
2024/01/18 09:55:09;;;;;;;28.80;20.05;;;;;;;;;;5090334;28;20224;-80
2024/01/18 09:57:37;;;;;;;30.33;21.75;;;;;;;;;;5089059;28;20204;-80
2024/01/18 10:00:08;;;;;;;33.38;20.52;;;;;;;;;;5077831;28;20335;-80
2024/01/18 10:02:35;;;;;;;25.05;18.00;;;;;;;;;;5089185;28;20603;-80
2024/01/18 10:05:04;;;;;;;27.17;19.15;;;;;;;;;;5092020;28;20255;-80
2024/01/18 10:07:32;;;;;;;24.52;18.98;;;;;;;;;;5089037;28;20205;-79
2024/01/18 10:10:01;;;;;;;26.63;19.92;;;;;;;;;;5089559;28;20196;-80
2024/01/18 10:12:31;;;;;;;25.63;18.33;;;;;;;;;;5080301;28;20200;-80
2024/01/18 10:14:59;;;;;;;22.85;18.10;;;;;;;;;;5088812;28;20252;-80
2024/01/18 10:17:28;;;;;;;27.73;18.50;;;;;;;;;;5089125;28;20196;-79
2024/01/18 10:19:57;;;;;;;25.05;18.90;;;;;;;;;;5093751;28;20212;-80
2024/01/18 10:22:24;;;;;;;27.77;19.65;;;;;;;;;;5092408;28;20219;-79
2024/01/18 10:24:52;;;;;;;30.67;17.88;;;;;;;;;;5087120;28;20283;-79
2024/01/18 10:27:22;;;;;;;22.85;17.20;;;;;;;;;;5087692;28;20601;-80
2024/01/18 10:29:50;;;;;;;32.95;19.77;;;;;;;;;;5089825;28;20212;-80
2024/01/18 10:32:18;;;;;;;23.92;18.27;;;;;;;;;;5089953;28;20548;-80
2024/01/18 10:34:46;;;;;;;27.00;18.77;;;;;;;;;;5086243;28;20217;-81
2024/01/18 10:37:15;;;;;;;24.50;18.50;;;;;;;;;;5082425;28;20267;-80
2024/01/18 10:39:46;;;;;;;25.17;18.27;;;;;;;;;;5089528;28;20625;-79
2024/01/18 10:42:13;;;;;;;23.83;17.52;;;;;;;;;;5076094;28;20700;-80
2024/01/18 10:44:43;;;;;;;29.25;18.48;;;;;;;;;;5084422;28;20312;-80
2024/01/18 10:47:12;;;;;;;23.00;15.73;;;;;;;;;;5094226;28;20269;-80
2024/01/18 10:49:41;;;;;;;25.02;17.52;;;;;;;;;;5075132;28;20293;-80
2024/01/18 10:52:09;;;;;;;25.52;18.23;;;;;;;;;;5083821;28;20251;-79
2024/01/18 10:54:37;;;;;;;27.17;18.05;;;;;;;;;;5084362;28;20224;-80
2024/01/18 10:57:05;;;;;;;25.65;18.20;;;;;;;;;;5090680;28;20212;-80
2024/01/18 10:59:33;;;;;;;23.50;17.45;;;;;;;;;;5087186;28;20204;-80
2024/01/18 11:02:02;;;;;;;26.13;17.63;;;;;;;;;;5087521;28;20600;-80
2024/01/18 11:04:31;;;;;;;25.85;18.45;;;;;;;;;;5076964;28;20312;-80
2024/01/18 11:06:59;;;;;;;23.35;16.38;;;;;;;;;;5091217;28;20205;-80
2024/01/18 11:09:28;;;;;;;25.25;15.82;;;;;;;;;;5090565;28;20206;-81
2024/01/18 11:11:56;;;;;;;24.73;17.83;;;;;;;;;;5088731;28;20284;-82
2024/01/18 11:14:24;;;;;;;21.15;15.98;;;;;;;;;;5091967;28;20247;-79
2024/01/18 11:16:51;;;;;;;21.80;15.98;;;;;;;;;;5084777;28;20211;-78
2024/01/18 11:19:41;;;;;;;23.23;15.98;;;;;;;;;;5092508;28;20223;-81
2024/01/18 11:22:11;;;;;;;21.90;16.58;;;;;;;;;;5096979;28;20212;-81
2024/01/18 11:24:40;;;;;;;21.60;14.88;;;;;;;;;;5092523;28;20638;-81
2024/01/18 11:27:21;;;;;;;25.08;17.55;;;;;;;;;;5088368;28;20216;-82
2024/01/18 11:29:50;;;;;;;25.33;16.85;;;;;;;;;;5086413;28;20208;-79
2024/01/18 11:32:20;;;;;;;21.17;15.55;;;;;;;;;;5095256;28;20206;-82
2024/01/18 11:34:49;;;;;;;21.98;15.07;;;;;;;;;;5094615;28;20586;-81
2024/01/18 11:37:18;;;;;;;21.38;14.80;;;;;;;;;;5093922;28;20200;-81
2024/01/18 11:39:54;;;;;;;20.73;14.65;;;;;;;;;;5088973;28;20663;-81
2024/01/18 11:42:25;;;;;;;18.50;14.75;;;;;;;;;;5092041;28;20311;-82
2024/01/18 11:44:57;;;;;;;22.35;16.35;;;;;;;;;;5096796;28;20302;-79
2024/01/18 11:47:25;;;;;;;20.70;15.55;;;;;;;;;;5097041;28;20203;-81
2024/01/18 11:49:54;;;;;;;28.00;15.32;;;;;;;;;;5096054;28;20673;-82
2024/01/18 11:52:22;;;;;;;21.00;14.65;;;;;;;;;;5095139;28;20303;-82
2024/01/18 11:54:55;;;;;;;18.65;13.27;;;;;;;;;;5092027;28;20306;-80
2024/01/18 11:57:24;;;;;;;19.45;13.10;;;;;;;;;;5097180;28;20194;-80
2024/01/18 11:59:52;;;;;;;17.45;13.27;;;;;;;;;;5096248;28;20651;-82
2024/01/18 12:02:20;;;;;;;20.13;12.60;;;;;;;;;;5096863;28;20223;-80
2024/01/18 12:04:48;;;;;;;14.98;12.38;;;;;;;;;;5093280;28;20220;-82
2024/01/18 12:07:17;;;;;;;14.95;11.60;;;;;;;;;;5100655;28;20199;-80
2024/01/18 12:09:45;;;;;;;19.05;12.20;;;;;;;;;;5096744;28;20283;-82
2024/01/18 12:12:13;;;;;;;18.27;12.25;;;;;;;;;;5097360;28;20260;-82
2024/01/18 12:14:42;;;;;;;17.63;13.52;;;;;;;;;;5100840;28;20216;-82
2024/01/18 12:17:10;;;;;;;20.48;13.00;;;;;;;;;;5101029;28;20223;-82
2024/01/18 12:19:40;;;;;;;16.48;13.32;;;;;;;;;;5100062;28;20216;-82
2024/01/18 12:22:09;;;;;;;17.40;12.80;;;;;;;;;;5100493;28;20220;-83
2024/01/18 12:24:39;;;;;;;15.32;13.05;;;;;;;;;;5093988;28;20307;-83
2024/01/18 12:27:07;;;;;;;14.70;11.85;;;;;;;;;;5100865;28;20208;-83
2024/01/18 12:29:37;;;;;;;18.20;12.55;;;;;;;;;;5100048;28;20228;-83
2024/01/18 12:32:05;;;;;;;14.50;11.13;;;;;;;;;;5100532;28;20283;-83
2024/01/18 12:34:33;;;;;;;15.93;11.93;;;;;;;;;;5099873;28;20687;-83
2024/01/18 12:37:01;;;;;;;13.13;10.55;;;;;;;;;;5100554;28;20652;-80
2024/01/18 12:39:28;;;;;;;17.42;11.73;;;;;;;;;;5098026;28;20544;-80
2024/01/18 12:41:58;;;;;;;15.70;11.80;;;;;;;;;;5095262;28;20212;-79
2024/01/18 12:44:26;;;;;;;13.45;12.00;;;;;;;;;;5109826;28;20245;-81
2024/01/18 12:46:58;;;;;;;15.70;11.05;;;;;;;;;;5096407;28;20205;-79
2024/01/18 12:49:26;;;;;;;12.93;10.65;;;;;;;;;;5080225;28;20214;-79
2024/01/18 12:51:55;;;;;;;16.65;11.95;;;;;;;;;;5099074;28;20208;-81
2024/01/18 12:54:23;;;;;;;13.50;10.55;;;;;;;;;;5085448;28;20224;-81
2024/01/18 12:56:58;;;;;;;15.43;12.75;;;;;;;;;;5088178;28;20211;-81
2024/01/18 12:59:26;;;;;;;13.40;10.70;;;;;;;;;;5092103;28;20205;-80
2024/01/18 13:01:54;;;;;;;19.63;12.02;;;;;;;;;;5092607;28;20200;-81
2024/01/18 13:04:24;;;;;;;18.95;13.93;;;;;;;;;;5098902;28;20243;-82
2024/01/18 13:06:54;;;;;;;16.92;12.85;;;;;;;;;;5097579;28;20236;-81
2024/01/18 13:09:25;;;;;;;18.52;13.23;;;;;;;;;;5078924;28;20198;-80
2024/01/18 13:11:52;;;;;;;18.30;13.60;;;;;;;;;;5094699;28;20646;-81
2024/01/18 13:14:21;;;;;;;15.77;13.32;;;;;;;;;;5082731;28;20311;-81
2024/01/18 13:16:52;;;;;;;17.88;13.38;;;;;;;;;;5079830;28;20232;-82
2024/01/18 13:19:21;;;;;;;15.27;12.55;;;;;;;;;;5076552;28;20203;-81
2024/01/18 13:21:52;;;;;;;16.48;13.23;;;;;;;;;;5095144;28;20204;-81
2024/01/18 13:24:20;;;;;;;14.75;12.52;;;;;;;;;;5092411;28;20228;-81
2024/01/18 13:26:48;;;;;;;14.68;11.95;;;;;;;;;;5092734;28;20235;-81
2024/01/18 13:29:17;;;;;;;13.23;11.75;;;;;;;;;;5081711;28;20205;-82
2024/01/18 13:31:47;;;;;;;13.70;12.00;;;;;;;;;;5091114;28;20632;-80
2024/01/18 13:34:15;;;;;;;20.60;13.65;;;;;;;;;;5078782;28;20656;-81
2024/01/18 13:36:43;;;;;;;15.52;13.00;;;;;;;;;;5087552;28;20209;-82
2024/01/18 13:39:10;;;;;;;16.52;11.82;;;;;;;;;;5086527;28;20199;-81
2024/01/18 13:41:38;;;;;;;18.88;13.40;;;;;;;;;;5094554;28;21572;-82
2024/01/18 13:44:07;;;;;;;15.02;11.50;;;;;;;;;;5087358;28;20315;-81
2024/01/18 13:46:37;;;;;;;12.65;10.45;;;;;;;;;;5082734;28;20201;-81
2024/01/18 13:49:05;;;;;;;14.15;10.43;;;;;;;;;;5092561;28;20207;-81
2024/01/18 13:51:33;;;;;;;13.45;11.05;;;;;;;;;;5089743;28;20404;-81
2024/01/18 13:54:00;;;;;;;11.02;9.80;;;;;;;;;;5064167;28;20225;-82
2024/01/18 13:56:28;;;;;;;10.75;9.65;;;;;;;;;;5063938;28;20292;-82
2024/01/18 13:58:55;;;;;;;14.27;10.90;;;;;;;;;;5063767;28;20228;-82
2024/01/18 14:01:23;;;;;;;10.75;8.90;;;;;;;;;;5064573;28;20320;-82
2024/01/18 14:03:52;;;;;;;9.73;7.63;;;;;;;;;;5080564;28;20245;-81
2024/01/18 14:06:22;;;;;;;14.57;11.18;;;;;;;;;;5084429;28;20267;-81
2024/01/18 14:08:50;;;;;;;14.68;10.20;;;;;;;;;;5084867;28;20659;-81
2024/01/18 14:11:17;;;;;;;12.43;10.18;;;;;;;;;;5084964;28;20290;-81
2024/01/18 14:13:45;;;;;;;12.82;8.10;;;;;;;;;;5084153;28;20201;-81
2024/01/18 14:16:13;;;;;;;16.52;9.68;;;;;;;;;;5085182;28;20312;-81
2024/01/18 14:18:41;;;;;;;11.90;9.88;;;;;;;;;;5085121;28;20291;-80
2024/01/18 14:21:09;;;;;;;9.65;8.20;;;;;;;;;;5089293;28;20212;-80
2024/01/18 14:23:38;;;;;;;14.02;8.77;;;;;;;;;;5088994;28;20307;-81